6Y6 weather

St Helen Airport
St Helen, Michigan, United States

Public forecast

Using degrees Fahrenheit for public forecast. Weather courtesy of forecast.io.

Closest aviation weather report (METAR) to St Helen Airport

Closest report is Roscommon County - Blodgett Memorial Airport, 11.6 nm (21.6 km) W. Retrieved 2020/08/06 14:53 UTC (55 minutes ago):

KHTL 061453Z AUTO 25005KT 10SM CLR 20/11 A3018 RMK AO2 SLP221 T02000106 50002

Closest aviation forecast (TAF) to St Helen Airport

Closest forecast is MBS International Airport, 51.9 nm (96.2 km) SSE. Retrieved 2020/08/06 12:22 UTC (3 hours ago):

TAF KMBS 061120Z 0612/0712 00000KT P6SM SCT250 FM061700 17004KT P6SM SCT060 FM070100 19003KT P6SM SKC